Pingree, ND (58476)

7:08 PM CDT on April 18, 2015 (GMT -0500)
RAWS | | Change Station
CLOSE
Current Station
Personal Weather Station
Location: Kensal, ND
Elevation: 1520 ft
Nearby Weather Stations

Elev 1520 ft 47.27 °N, 98.87 °W | Updated 34 minutes ago

Overcast
Overcast
64 °F
Feels Like 64 °F
N
8
Wind Variable Wind from West
Gusts 10.0 mph

Today
High -- | Low -- °F
--% Chance of Precip.
Yesterday
High -- | Low -- °F
Precip. -- in
6:42 AM 8:28 PM
New Moon, 0% visible
Pressure 29.90 in
Visibility 10.0 miles
Clouds Overcast 10000 ft
Dew Point 27 °F
Humidity 25%
Rainfall in
Snow Depth Not available.
UV 0 out of 12
Pollen 9.50 out of 12
Air Quality Not available.
Flu Activity Regional
METAR KJMS 182356Z AUTO 16012G18KT 10SM OVC100 18/M02 A2988 RMK AO2 SLP125 T01831022 10217 20161 56005

More Conditions Fewer Conditions

Pressure 29.90 in
Visibility 10.0 miles
Clouds Overcast 10000 ft
Dew Point 27 °F
Humidity 25%
Rainfall in
Snow Depth Not available.
UV 0 out of 12
Pollen 9.50 out of 12
Air Quality Not available.
Flu Activity Regional
METAR KJMS 182356Z AUTO 16012G18KT 10SM OVC100 18/M02 A2988 RMK AO2 SLP125 T01831022 10217 20161 56005

More Conditions Fewer Conditions

10-Day Weather Forecast

Almanac

Astronomy

Apr. 18, 2015 Rise Set
Actual Time
Civil Twilight
Nautical Twilight
Astronomical Twilight
Moon
Length of Visible Light
Length of Day
Tomorrow will be .
, % of the Moon is Illuminated

Today's Extremes

State Highs State Lows

Community

WunderPhotos

Upload Photos

1,814,588 photos uploaded!

WunderBlogs® & News

Nearby

Air Quality

  Air Quality AQ Index Pollutant
Not available.

Snow Depth

Station Depth Elevation

Earthquake Activity

City Distance Mag. Time & Date
Minimum magnitude displayed is 2.5.

Coastal Water Temperatures

Place Temperature

Stations

Nearby Weather Stations

Station Location Temp. Windchill Dew Point Humidity Wind Precip. Elev Updated Type